Time;durP1;ratioP1;P1;durP2;ratioP2;P2;SDS_P1;SDS_P2;PMS_P1;PMS_P2;Temp;Humidity;BMP_temperature;BMP_pressure;BME280_temperature;BME280_humidity;BME280_pressure;Samples;Min_cycle;Max_cycle;Signal;HPM_P1;HPM_P2
2021/11/21 00:00:30;;;;;;;43.58;21.67;;;;;;;7.14;88.84;101316.38;5024844;28;20039;-67
2021/11/21 00:02:59;;;;;;;45.65;23.48;;;;;;;7.12;89.31;101304.53;5032810;28;20041;-66
2021/11/21 00:05:25;;;;;;;44.83;22.00;;;;;;;7.03;89.90;101303.50;5026603;28;20044;-67
2021/11/21 00:07:50;;;;;;;46.55;23.80;;;;;;;7.02;90.63;101297.50;5028443;28;20029;-67
2021/11/21 00:10:16;;;;;;;43.00;23.42;;;;;;;6.98;90.74;101293.53;5029725;28;20385;-67
2021/11/21 00:12:41;;;;;;;49.40;24.60;;;;;;;6.97;90.93;101285.94;5028538;28;20079;-66
2021/11/21 00:15:10;;;;;;;46.08;23.75;;;;;;;7.04;90.89;101281.13;5026977;28;20041;-66
2021/11/21 00:17:35;;;;;;;48.47;23.80;;;;;;;7.04;90.99;101281.13;5025017;28;20359;-66
2021/11/21 00:20:03;;;;;;;49.85;24.73;;;;;;;7.06;91.32;101281.81;5041260;28;20419;-66
2021/11/21 00:22:34;;;;;;;47.75;24.80;;;;;;;7.04;91.28;101270.81;5031322;28;20034;-66
2021/11/21 00:25:00;;;;;;;46.80;23.42;;;;;;;6.96;91.90;101279.13;5026572;28;20396;-67
2021/11/21 00:27:26;;;;;;;49.38;26.38;;;;;;;6.94;91.40;101275.88;5032854;28;20045;-66
2021/11/21 00:29:53;;;;;;;53.25;25.23;;;;;;;6.93;91.79;101277.63;5015781;28;20033;-66
2021/11/21 00:32:19;;;;;;;49.58;25.70;;;;;;;6.99;91.70;101269.41;5034038;28;20108;-66
2021/11/21 00:34:44;;;;;;;49.58;24.52;;;;;;;6.90;91.98;101264.97;5014700;28;20018;-67
2021/11/21 00:37:12;;;;;;;50.28;25.05;;;;;;;6.88;91.79;101258.31;5031695;28;20484;-67
2021/11/21 00:39:37;;;;;;;48.05;24.08;;;;;;;6.85;91.74;101256.78;5030963;28;20079;-66
2021/11/21 00:42:04;;;;;;;47.65;24.42;;;;;;;6.85;92.15;101249.03;5033311;28;20029;-66
2021/11/21 00:44:29;;;;;;;50.50;25.55;;;;;;;6.72;92.67;101244.03;5032799;28;20036;-67
2021/11/21 00:46:55;;;;;;;51.60;25.35;;;;;;;6.68;92.97;101252.94;5032522;28;20020;-67
2021/11/21 00:49:20;;;;;;;48.40;24.40;;;;;;;6.79;92.86;101257.25;5016512;28;20049;-67
2021/11/21 00:51:49;;;;;;;53.35;25.73;;;;;;;6.75;92.91;101248.13;5031427;28;20116;-66
2021/11/21 00:54:43;;;;;;;53.67;24.77;;;;;;;6.71;93.16;101242.41;5029140;28;20029;-66
2021/11/21 00:57:10;;;;;;;51.35;24.20;;;;;;;6.74;93.27;101243.91;5028313;28;20137;-66
2021/11/21 00:59:36;;;;;;;54.15;27.27;;;;;;;6.75;93.70;101242.97;5014134;28;20120;-66
2021/11/21 01:02:08;;;;;;;49.75;25.13;;;;;;;6.76;93.18;101234.28;5034627;28;20037;-67
2021/11/21 01:04:35;;;;;;;49.75;26.13;;;;;;;6.74;93.45;101226.69;5029354;28;20557;-67
2021/11/21 01:07:00;;;;;;;52.40;25.58;;;;;;;6.76;93.76;101224.81;5023186;28;20057;-66
2021/11/21 01:09:27;;;;;;;49.50;25.60;;;;;;;6.76;93.88;101229.97;5030832;28;20507;-66
2021/11/21 01:11:56;;;;;;;50.03;25.20;;;;;;;6.84;93.42;101229.38;5027621;28;20025;-66
2021/11/21 01:14:22;;;;;;;55.70;26.17;;;;;;;6.86;93.48;101219.75;5027577;28;20556;-66
2021/11/21 01:16:48;;;;;;;53.42;25.85;;;;;;;6.85;93.67;101228.41;5024600;28;20037;-66
2021/11/21 01:19:14;;;;;;;55.50;26.63;;;;;;;6.75;93.54;101218.00;5026936;28;20083;-67
2021/11/21 01:21:43;;;;;;;52.42;26.00;;;;;;;6.67;94.71;101219.53;5025637;28;20041;-66
2021/11/21 01:24:09;;;;;;;58.92;27.02;;;;;;;6.71;94.38;101226.94;5021849;28;20387;-66
2021/11/21 01:26:37;;;;;;;55.85;26.40;;;;;;;6.68;94.67;101218.63;5029535;28;20029;-66
2021/11/21 01:29:03;;;;;;;55.10;26.75;;;;;;;6.76;94.85;101216.25;5036046;28;20052;-67
2021/11/21 01:31:29;;;;;;;57.08;25.33;;;;;;;6.73;94.62;101204.44;5027273;28;20495;-66
2021/11/21 01:33:54;;;;;;;57.80;26.90;;;;;;;6.70;95.35;101207.25;5025094;28;20043;-66
2021/11/21 01:36:20;;;;;;;61.30;28.30;;;;;;;6.71;95.37;101208.09;5029218;28;20026;-66
2021/11/21 01:38:47;;;;;;;59.75;27.52;;;;;;;6.67;95.57;101199.78;5024929;28;20041;-67
2021/11/21 01:41:13;;;;;;;63.95;29.15;;;;;;;6.68;95.81;101201.38;5028472;28;20037;-67
2021/11/21 01:43:41;;;;;;;57.92;27.60;;;;;;;6.76;95.61;101211.94;5031868;28;20061;-67
2021/11/21 01:46:07;;;;;;;62.10;27.52;;;;;;;6.70;95.58;101211.59;5018294;28;20483;-66
2021/11/21 01:48:34;;;;;;;57.05;28.25;;;;;;;6.72;95.71;101207.13;5032822;28;20180;-66
2021/11/21 01:51:03;;;;;;;60.25;28.23;;;;;;;6.71;96.19;101210.66;5029185;28;20025;-66
2021/11/21 01:53:29;;;;;;;58.97;27.38;;;;;;;6.65;96.38;101201.66;5034557;28;20069;-66
2021/11/21 01:55:56;;;;;;;57.70;27.48;;;;;;;6.75;95.98;101191.44;5030520;28;20064;-67
2021/11/21 01:58:21;;;;;;;62.00;28.30;;;;;;;6.77;95.68;101189.53;5039751;28;20044;-67
2021/11/21 02:00:49;;;;;;;58.13;26.75;;;;;;;6.77;95.81;101190.34;5032061;28;20037;-67
2021/11/21 02:03:15;;;;;;;58.30;27.27;;;;;;;6.75;95.64;101187.09;5040191;28;20087;-66
2021/11/21 02:05:41;;;;;;;56.92;26.63;;;;;;;6.72;95.85;101182.16;5034873;28;20448;-66
2021/11/21 02:08:08;;;;;;;61.30;27.58;;;;;;;6.77;96.26;101179.22;5029381;28;20112;-66
2021/11/21 02:10:35;;;;;;;60.80;27.30;;;;;;;6.74;95.91;101167.41;5033241;28;20095;-67
2021/11/21 02:13:04;;;;;;;53.75;24.33;;;;;;;6.63;96.11;101159.72;5032780;28;20029;-67
2021/11/21 02:15:29;;;;;;;59.60;26.73;;;;;;;6.61;96.48;101159.84;5031778;28;20510;-67
2021/11/21 02:17:55;;;;;;;56.63;25.23;;;;;;;6.60;97.09;101157.38;5028976;28;20025;-67
2021/11/21 02:20:41;;;;;;;59.33;27.15;;;;;;;6.63;97.20;101152.81;5027677;28;20375;-66
2021/11/21 02:23:08;;;;;;;57.20;25.23;;;;;;;6.65;96.63;101144.13;5027387;28;20049;-66
2021/11/21 02:25:34;;;;;;;57.95;26.45;;;;;;;6.74;96.24;101144.22;5027413;28;20407;-66
2021/11/21 02:28:00;;;;;;;56.72;25.48;;;;;;;6.71;96.29;101138.50;5028699;28;20025;-66
2021/11/21 02:30:25;;;;;;;57.22;24.75;;;;;;;6.69;96.36;101135.22;5026065;28;20041;-66
2021/11/21 02:32:52;;;;;;;54.33;24.48;;;;;;;6.77;96.19;101135.41;5029575;28;20036;-67
2021/11/21 02:35:20;;;;;;;55.30;24.83;;;;;;;6.76;96.03;101136.34;5024989;28;20516;-67
2021/11/21 02:37:48;;;;;;;52.28;24.65;;;;;;;6.75;96.16;101139.88;5028794;28;20119;-66
2021/11/21 02:40:15;;;;;;;49.65;23.13;;;;;;;6.79;95.43;101134.34;5025082;28;20484;-66
2021/11/21 02:42:41;;;;;;;53.58;23.85;;;;;;;6.79;95.42;101136.09;5035733;28;20476;-66
2021/11/21 02:45:09;;;;;;;49.53;22.17;;;;;;;6.67;96.24;101119.03;5027806;28;20034;-66
2021/11/21 02:47:35;;;;;;;52.95;23.77;;;;;;;6.64;96.47;101122.69;5029264;28;20029;-67
2021/11/21 02:50:03;;;;;;;56.47;24.05;;;;;;;6.74;96.38;101118.44;5026161;28;20141;-67
2021/11/21 02:52:30;;;;;;;58.58;24.88;;;;;;;6.75;95.94;101109.75;5025680;28;20104;-67
2021/11/21 02:54:57;;;;;;;52.78;23.33;;;;;;;6.73;95.99;101116.81;5032526;28;20116;-67
2021/11/21 02:57:25;;;;;;;55.60;23.77;;;;;;;6.75;95.61;101108.94;5031563;28;20040;-66
2021/11/21 02:59:51;;;;;;;51.83;22.25;;;;;;;6.68;96.29;101113.75;5036935;28;20029;-66
2021/11/21 03:02:18;;;;;;;51.33;22.52;;;;;;;6.66;96.22;101109.69;5029734;28;20171;-66
2021/11/21 03:04:51;;;;;;;55.97;23.92;;;;;;;6.69;96.36;101106.88;5033494;28;20399;-66
2021/11/21 03:07:17;;;;;;;52.33;22.60;;;;;;;6.68;96.25;101095.72;5028933;28;20037;-67
2021/11/21 03:09:46;;;;;;;52.50;22.67;;;;;;;6.66;96.52;101096.81;5035789;28;20056;-66
2021/11/21 03:12:12;;;;;;;53.90;21.75;;;;;;;6.71;96.42;101097.25;5031510;28;20075;-67
2021/11/21 03:14:37;;;;;;;50.05;22.10;;;;;;;6.67;96.26;101098.41;5028455;28;20534;-67
2021/11/21 03:17:04;;;;;;;52.40;23.45;;;;;;;6.67;96.12;101091.53;5033045;28;20423;-67
2021/11/21 03:19:30;;;;;;;46.85;20.95;;;;;;;6.76;95.89;101085.63;5037433;28;20117;-67
2021/11/21 03:21:59;;;;;;;49.30;20.40;;;;;;;6.73;95.81;101085.06;5030737;28;20458;-67
2021/11/21 03:24:25;;;;;;;51.72;21.27;;;;;;;6.71;95.85;101090.34;5036850;28;20025;-67
2021/11/21 03:26:51;;;;;;;51.20;21.63;;;;;;;6.66;95.67;101071.84;5033712;28;20017;-67
2021/11/21 03:29:17;;;;;;;44.08;19.70;;;;;;;6.59;96.32;101084.41;5027623;28;20044;-67
2021/11/21 03:31:42;;;;;;;51.13;19.75;;;;;;;6.62;96.18;101085.91;5015636;28;20031;-66
2021/11/21 03:34:08;;;;;;;45.45;19.90;;;;;;;6.61;96.25;101073.97;5036540;28;20044;-67
2021/11/21 03:36:34;;;;;;;45.03;19.08;;;;;;;6.57;96.35;101075.16;5030003;28;20037;-67
2021/11/21 03:39:00;;;;;;;46.92;19.67;;;;;;;6.53;96.60;101068.63;5041408;28;20028;-67
2021/11/21 03:41:27;;;;;;;48.20;20.33;;;;;;;6.66;96.27;101060.72;5032791;28;20082;-67
2021/11/21 03:43:53;;;;;;;42.72;17.73;;;;;;;6.60;96.31;101064.59;5026303;28;20047;-67
2021/11/21 03:46:21;;;;;;;39.83;18.27;;;;;;;6.67;96.26;101055.44;5033795;28;20119;-66
2021/11/21 03:48:47;;;;;;;43.95;18.60;;;;;;;6.62;96.20;101055.00;5034287;28;20116;-66
2021/11/21 03:51:13;;;;;;;43.40;18.60;;;;;;;6.60;96.71;101059.47;5031753;28;20052;-67
2021/11/21 03:53:39;;;;;;;45.60;18.98;;;;;;;6.61;96.13;101056.75;5038166;28;20035;-66
2021/11/21 03:56:04;;;;;;;45.88;18.95;;;;;;;6.69;96.16;101056.13;5037741;28;20041;-67
2021/11/21 03:58:30;;;;;;;45.78;19.13;;;;;;;6.58;96.45;101053.63;5020551;28;20025;-67
2021/11/21 04:00:56;;;;;;;44.83;18.35;;;;;;;6.60;96.48;101044.81;5033253;28;20474;-67
2021/11/21 04:03:21;;;;;;;40.00;16.88;;;;;;;6.60;96.24;101047.38;5033938;28;20028;-67
2021/11/21 04:05:47;;;;;;;40.85;17.60;;;;;;;6.66;96.31;101048.66;5037829;28;20028;-66
2021/11/21 04:08:13;;;;;;;39.88;17.52;;;;;;;6.58;96.50;101038.97;5034351;28;20064;-66
2021/11/21 04:10:39;;;;;;;43.20;18.38;;;;;;;6.59;96.73;101039.78;5031291;28;20063;-67
2021/11/21 04:13:05;;;;;;;41.47;17.65;;;;;;;6.59;97.19;101035.47;5027685;28;20090;-66
2021/11/21 04:15:32;;;;;;;40.10;16.67;;;;;;;6.51;97.02;101032.66;5027054;28;20075;-67
2021/11/21 04:17:58;;;;;;;39.90;16.52;;;;;;;6.47;97.72;101023.56;5034674;28;20399;-67
2021/11/21 04:20:24;;;;;;;37.42;16.00;;;;;;;6.46;97.99;101024.50;5027979;28;20037;-67
2021/11/21 04:22:50;;;;;;;40.83;16.42;;;;;;;6.47;97.81;101023.56;5030110;28;20464;-67
2021/11/21 04:25:15;;;;;;;38.15;16.58;;;;;;;6.43;97.94;101020.41;5041411;28;20025;-67
2021/11/21 04:27:41;;;;;;;34.80;15.10;;;;;;;6.50;97.96;101018.16;5048043;28;20032;-67
2021/11/21 04:30:10;;;;;;;36.58;16.55;;;;;;;6.50;97.75;101014.75;5036659;28;20026;-67
2021/11/21 04:32:37;;;;;;;35.63;15.70;;;;;;;6.46;97.60;101014.22;5033101;28;20472;-67
2021/11/21 04:35:06;;;;;;;38.25;16.15;;;;;;;6.46;97.40;101005.63;5030752;28;20396;-67
2021/11/21 04:37:32;;;;;;;38.00;15.00;;;;;;;6.52;97.71;101005.16;5046952;28;20479;-67
2021/11/21 04:39:57;;;;;;;35.38;14.60;;;;;;;6.47;97.00;101002.94;5026736;28;20073;-67
2021/11/21 04:42:23;;;;;;;34.03;15.40;;;;;;;6.53;97.62;101005.00;5033654;28;20029;-67
2021/11/21 04:44:49;;;;;;;35.63;14.32;;;;;;;6.49;97.30;101001.06;5036966;28;20026;-67
2021/11/21 04:47:15;;;;;;;34.90;15.13;;;;;;;6.52;97.51;101003.41;5038200;28;20033;-67
2021/11/21 04:49:40;;;;;;;38.65;15.88;;;;;;;6.52;97.81;101005.97;5028425;28;20124;-67
2021/11/21 04:52:07;;;;;;;35.70;15.60;;;;;;;6.59;97.26;101001.97;5039881;28;20032;-66
2021/11/21 04:54:32;;;;;;;35.10;15.90;;;;;;;6.65;97.04;100998.06;5032940;28;20033;-67
2021/11/21 04:56:58;;;;;;;35.90;15.73;;;;;;;6.65;97.04;100994.66;5029410;28;20055;-66
2021/11/21 04:59:23;;;;;;;37.42;15.40;;;;;;;6.68;96.72;100991.84;5034837;28;20112;-67
2021/11/21 05:01:49;;;;;;;38.70;16.35;;;;;;;6.66;96.33;100989.38;5045504;28;20030;-67
2021/11/21 05:04:15;;;;;;;37.35;15.80;;;;;;;6.65;96.56;100981.75;5033403;28;20063;-67
2021/11/21 05:06:42;;;;;;;40.78;16.92;;;;;;;6.56;96.46;100991.09;5037432;28;20041;-67
2021/11/21 05:09:07;;;;;;;35.63;16.27;;;;;;;6.53;96.99;100986.16;5018949;28;20120;-67
2021/11/21 05:11:37;;;;;;;45.17;17.88;;;;;;;6.53;97.01;100986.16;5019496;28;20030;-67
2021/11/21 05:14:04;;;;;;;42.22;17.63;;;;;;;6.61;97.34;100976.88;5027754;28;20497;-67
2021/11/21 05:16:31;;;;;;;41.50;18.25;;;;;;;6.59;97.39;100983.94;5041097;28;20124;-66
2021/11/21 05:18:57;;;;;;;42.60;18.70;;;;;;;6.62;96.99;100977.69;5032746;28;20036;-67
2021/11/21 05:21:22;;;;;;;40.35;18.63;;;;;;;6.60;96.91;100977.00;5028970;28;20034;-67
2021/11/21 05:23:48;;;;;;;46.78;19.20;;;;;;;6.62;96.84;100975.13;5024759;28;20045;-67
2021/11/21 05:26:13;;;;;;;45.05;19.42;;;;;;;6.56;97.06;100976.44;5026600;28;20038;-68
2021/11/21 05:28:39;;;;;;;46.67;19.33;;;;;;;6.51;97.40;100965.69;5027626;28;20029;-67
2021/11/21 05:31:05;;;;;;;54.95;20.45;;;;;;;6.54;97.59;100962.84;5050248;28;20037;-67
2021/11/21 05:33:30;;;;;;;43.75;19.23;;;;;;;6.54;97.75;100967.22;5035197;28;20037;-67
2021/11/21 05:35:56;;;;;;;42.65;18.25;;;;;;;6.58;97.58;100968.59;5033667;28;20063;-67
2021/11/21 05:38:21;;;;;;;46.78;19.42;;;;;;;6.50;97.62;100964.06;5032729;28;20037;-67
2021/11/21 05:40:47;;;;;;;47.78;19.92;;;;;;;6.57;97.95;100960.03;5031471;28;20484;-67
2021/11/21 05:43:12;;;;;;;44.08;20.25;;;;;;;6.59;97.05;100959.88;5035836;28;20103;-67
2021/11/21 05:45:38;;;;;;;46.67;19.58;;;;;;;6.57;97.50;100954.88;5029754;28;20462;-67
2021/11/21 05:48:04;;;;;;;47.47;19.80;;;;;;;6.64;97.44;100960.34;5037273;28;20041;-67
2021/11/21 05:50:30;;;;;;;42.65;19.65;;;;;;;6.66;97.08;100963.59;5022332;28;20111;-67
2021/11/21 05:52:55;;;;;;;46.22;19.77;;;;;;;6.58;97.05;100960.84;5054899;28;20479;-67
2021/11/21 05:55:21;;;;;;;52.40;20.27;;;;;;;6.54;97.25;100959.47;5036310;28;20029;-67
2021/11/21 05:57:48;;;;;;;41.88;19.33;;;;;;;6.55;97.23;100961.09;5043592;28;20194;-67
2021/11/21 06:00:18;;;;;;;45.67;19.02;;;;;;;6.65;97.36;100956.00;5020982;28;20033;-67
2021/11/21 06:02:44;;;;;;;48.00;18.75;;;;;;;6.62;97.15;100954.50;5038074;28;20029;-67
2021/11/21 06:05:15;;;;;;;44.75;19.15;;;;;;;6.70;96.99;100948.72;5031638;28;20076;-67
2021/11/21 06:07:40;;;;;;;54.00;20.17;;;;;;;6.63;97.02;100945.84;5040495;28;20032;-67
2021/11/21 06:10:11;;;;;;;43.90;18.67;;;;;;;6.54;97.52;100955.13;5034899;28;20045;-67
2021/11/21 06:12:37;;;;;;;45.13;19.60;;;;;;;6.67;97.26;100952.38;5047086;28;20422;-67
2021/11/21 06:15:03;;;;;;;49.78;20.00;;;;;;;6.58;97.47;100956.50;5032401;28;20431;-67
2021/11/21 06:17:32;;;;;;;50.03;19.95;;;;;;;6.51;97.65;100946.84;5039606;28;20034;-67
2021/11/21 06:19:58;;;;;;;46.10;20.60;;;;;;;6.55;98.12;100946.44;5035780;28;20126;-67
2021/11/21 06:22:24;;;;;;;52.15;21.08;;;;;;;6.49;98.29;100941.00;5052286;28;20040;-67
2021/11/21 06:24:49;;;;;;;52.40;20.77;;;;;;;6.55;97.90;100935.31;5035063;28;20017;-67
2021/11/21 06:27:15;;;;;;;51.85;20.80;;;;;;;6.53;98.11;100929.50;5036879;28;20463;-67
2021/11/21 06:29:40;;;;;;;53.67;22.13;;;;;;;6.48;98.19;100929.88;5038763;28;20024;-67
2021/11/21 06:32:07;;;;;;;48.22;19.83;;;;;;;6.50;97.88;100924.56;5034812;28;20502;-67
2021/11/21 06:34:32;;;;;;;52.45;21.17;;;;;;;6.55;97.72;100922.44;5035662;28;20045;-67
2021/11/21 06:36:58;;;;;;;51.60;20.67;;;;;;;6.64;97.46;100919.09;5034481;28;20091;-67
2021/11/21 06:39:24;;;;;;;53.40;21.42;;;;;;;6.59;97.28;100916.94;5049533;28;20116;-67
2021/11/21 06:41:50;;;;;;;51.08;19.75;;;;;;;6.57;97.48;100918.81;5033370;28;20040;-67
2021/11/21 06:44:15;;;;;;;49.45;19.30;;;;;;;6.66;97.46;100906.91;5035287;28;20029;-67
2021/11/21 06:46:41;;;;;;;48.53;18.90;;;;;;;6.54;97.73;100911.34;5034978;28;20333;-67
2021/11/21 06:49:07;;;;;;;54.38;20.58;;;;;;;6.54;97.61;100907.94;5050784;28;20071;-67
2021/11/21 06:51:34;;;;;;;44.20;19.55;;;;;;;6.65;97.33;100907.03;5037332;28;20044;-66
2021/11/21 06:53:59;;;;;;;49.45;20.17;;;;;;;6.57;97.24;100917.97;5017246;28;20025;-67
2021/11/21 06:56:29;;;;;;;51.17;20.08;;;;;;;6.58;97.53;100922.19;5037164;28;20391;-67
2021/11/21 06:58:55;;;;;;;49.20;20.40;;;;;;;6.66;97.11;100913.84;5036263;28;20048;-67
2021/11/21 07:01:21;;;;;;;47.22;18.77;;;;;;;6.66;96.94;100926.72;5027198;28;20086;-67
2021/11/21 07:03:47;;;;;;;47.17;20.00;;;;;;;6.64;97.21;100921.69;5040749;28;20447;-67
2021/11/21 07:06:43;;;;;;;47.65;20.15;;;;;;;6.72;96.56;100931.34;5032440;28;20032;-68
2021/11/21 07:09:14;;;;;;;47.95;20.42;;;;;;;6.56;97.03;100932.63;5029534;28;20565;-67
2021/11/21 07:11:40;;;;;;;53.42;20.70;;;;;;;6.62;97.16;100934.69;5032716;28;20513;-67
2021/11/21 07:14:06;;;;;;;46.42;20.10;;;;;;;6.61;97.26;100938.22;5032516;28;20084;-67
2021/11/21 07:16:32;;;;;;;48.85;19.38;;;;;;;6.54;97.70;100937.09;5030408;28;20492;-67
2021/11/21 07:18:58;;;;;;;48.33;19.63;;;;;;;6.58;97.98;100943.63;5027562;28;20185;-67
2021/11/21 07:21:25;;;;;;;51.03;20.33;;;;;;;6.52;98.09;100935.59;5031543;28;20033;-67
2021/11/21 07:23:50;;;;;;;48.40;19.58;;;;;;;6.49;98.36;100941.81;5029034;28;20598;-67
2021/11/21 07:26:16;;;;;;;49.33;19.75;;;;;;;6.60;98.41;100939.16;5036674;28;20044;-67
2021/11/21 07:28:41;;;;;;;48.20;20.42;;;;;;;6.57;98.13;100941.16;5034820;28;20033;-67
2021/11/21 07:31:10;;;;;;;52.75;20.52;;;;;;;6.57;97.99;100946.31;5027948;28;20116;-67
2021/11/21 07:33:39;;;;;;;45.90;18.75;;;;;;;6.60;98.79;100946.09;5030018;28;20036;-66
2021/11/21 07:36:05;;;;;;;48.38;19.08;;;;;;;6.57;98.64;100946.31;5035921;28;20469;-68
2021/11/21 07:38:31;;;;;;;44.42;19.38;;;;;;;6.65;98.17;100954.25;5032833;28;20083;-67
2021/11/21 07:40:58;;;;;;;45.63;17.42;;;;;;;6.55;98.28;100958.50;5032792;28;20104;-68
2021/11/21 07:43:23;;;;;;;45.20;17.55;;;;;;;6.60;98.47;100949.47;5014906;28;20500;-67
2021/11/21 07:45:49;;;;;;;40.72;16.27;;;;;;;6.57;98.44;100948.91;5033356;28;20120;-68
2021/11/21 07:48:15;;;;;;;37.58;15.85;;;;;;;6.54;98.61;100956.91;5031960;28;20033;-67
2021/11/21 07:50:41;;;;;;;35.50;14.25;;;;;;;6.59;99.17;100960.72;5028992;28;20184;-67
2021/11/21 07:53:08;;;;;;;34.83;14.27;;;;;;;6.63;98.88;100951.81;5027949;28;20021;-67
2021/11/21 07:55:34;;;;;;;34.00;13.75;;;;;;;6.66;98.86;100952.50;5029202;28;20423;-67
2021/11/21 07:58:00;;;;;;;31.55;13.25;;;;;;;6.56;98.59;100957.59;5027862;28;20104;-67
2021/11/21 08:00:25;;;;;;;29.23;12.63;;;;;;;6.56;98.98;100960.97;5029280;28;20091;-68
2021/11/21 08:02:51;;;;;;;34.35;13.25;;;;;;;6.65;98.92;100959.41;5031290;28;20029;-67
2021/11/21 08:05:19;;;;;;;34.13;14.40;;;;;;;6.73;98.98;100957.00;5037071;28;20037;-68
2021/11/21 08:07:45;;;;;;;31.90;11.98;;;;;;;6.76;98.48;100961.91;5033677;28;20084;-67
2021/11/21 08:10:12;;;;;;;28.48;12.77;;;;;;;6.65;98.98;100968.88;5031672;28;20301;-67
2021/11/21 08:12:38;;;;;;;31.38;12.75;;;;;;;6.61;99.06;100964.00;5028818;28;20099;-67
2021/11/21 08:15:05;;;;;;;29.85;12.07;;;;;;;6.60;99.56;100962.34;5024618;28;20535;-67
2021/11/21 08:17:31;;;;;;;27.92;12.68;;;;;;;6.74;99.17;100966.38;5036115;28;20025;-67
2021/11/21 08:19:56;;;;;;;26.17;11.45;;;;;;;6.68;99.27;100978.94;5027478;28;20480;-67
2021/11/21 08:22:22;;;;;;;31.55;12.63;;;;;;;6.70;99.35;100970.13;5028049;28;20040;-67
2021/11/21 08:24:47;;;;;;;26.52;11.40;;;;;;;6.76;99.34;100964.50;5028854;28;20032;-67
2021/11/21 08:27:13;;;;;;;28.38;12.45;;;;;;;6.89;99.09;100964.28;5025930;28;20036;-67
2021/11/21 08:29:44;;;;;;;26.40;11.90;;;;;;;6.73;99.12;100969.91;5028572;28;20033;-67
2021/11/21 08:32:09;;;;;;;30.77;11.30;;;;;;;6.80;99.41;100959.91;5025169;28;20037;-68
2021/11/21 08:34:35;;;;;;;28.35;12.20;;;;;;;6.82;99.68;100963.16;5026192;28;20381;-67
2021/11/21 08:37:01;;;;;;;26.77;11.60;;;;;;;6.90;99.25;100962.53;5025720;28;20032;-68
2021/11/21 08:39:26;;;;;;;29.20;12.18;;;;;;;6.87;99.23;100961.00;5026322;28;20038;-67
2021/11/21 08:41:54;;;;;;;32.05;11.70;;;;;;;6.79;99.40;100966.00;5028610;28;20391;-67
2021/11/21 08:44:21;;;;;;;178.75;47.78;;;;;;;6.82;99.71;100960.59;5028368;28;20067;-67
2021/11/21 08:46:47;;;;;;;198.40;66.03;;;;;;;6.90;100.00;100962.53;5025313;28;20057;-67
2021/11/21 08:49:13;;;;;;;114.90;41.00;;;;;;;6.88;99.89;100964.44;5024105;28;20025;-67
2021/11/21 08:51:40;;;;;;;51.75;20.65;;;;;;;6.90;99.96;100968.50;5025685;28;20100;-68
2021/11/21 08:54:07;;;;;;;56.22;24.98;;;;;;;6.96;100.00;100956.84;5031321;28;20496;-67
2021/11/21 08:56:33;;;;;;;51.45;23.38;;;;;;;6.95;100.00;100957.78;5026635;28;20032;-67
2021/11/21 08:58:59;;;;;;;63.55;30.40;;;;;;;6.98;100.00;100953.19;5027668;28;20491;-67
2021/11/21 09:01:24;;;;;;;51.85;23.08;;;;;;;6.98;100.00;100958.34;5024785;28;20030;-68
2021/11/21 09:03:50;;;;;;;88.68;42.42;;;;;;;7.08;100.00;100966.13;5031034;28;20037;-67
2021/11/21 09:06:15;;;;;;;58.42;28.13;;;;;;;7.10;100.00;100963.41;5026330;28;20033;-68
2021/11/21 09:08:41;;;;;;;36.97;18.23;;;;;;;7.09;99.94;100965.19;5028202;28;20387;-67
2021/11/21 09:11:06;;;;;;;47.58;21.38;;;;;;;7.20;99.38;100959.13;5029577;28;20063;-67
2021/11/21 09:13:32;;;;;;;30.25;16.52;;;;;;;7.20;99.42;100962.53;5020729;28;20033;-68
2021/11/21 09:15:59;;;;;;;31.23;15.20;;;;;;;7.16;99.27;100958.56;5029886;28;20047;-67
2021/11/21 09:18:25;;;;;;;27.10;13.38;;;;;;;7.28;98.89;100971.38;5029716;28;20040;-68
2021/11/21 09:20:56;;;;;;;29.58;15.38;;;;;;;7.17;99.08;100973.09;5026270;28;20033;-67
2021/11/21 09:23:23;;;;;;;23.52;11.02;;;;;;;7.31;99.08;100971.94;5029424;28;20476;-67
2021/11/21 09:25:49;;;;;;;31.70;14.98;;;;;;;7.39;98.89;100974.66;5025587;28;20028;-68
2021/11/21 09:28:16;;;;;;;27.92;13.82;;;;;;;7.33;98.94;100979.56;5025543;28;20573;-67
2021/11/21 09:30:41;;;;;;;31.85;16.05;;;;;;;7.34;98.95;100986.34;5029495;28;20088;-68
2021/11/21 09:33:07;;;;;;;27.63;13.88;;;;;;;7.39;99.31;100974.66;5031804;28;20025;-68
2021/11/21 09:35:33;;;;;;;25.55;11.70;;;;;;;7.40;99.74;100980.63;5030470;28;20071;-68
2021/11/21 09:37:59;;;;;;;28.45;10.80;;;;;;;7.50;99.76;100984.09;5034128;28;20048;-67
2021/11/21 09:40:25;;;;;;;26.05;11.88;;;;;;;7.46;99.46;100980.13;5034443;28;20024;-67
2021/11/21 09:42:51;;;;;;;24.13;11.82;;;;;;;7.52;99.83;100992.50;5030104;28;20543;-67
2021/11/21 09:45:18;;;;;;;24.95;10.98;;;;;;;7.60;99.63;100987.50;5027471;28;20045;-68
2021/11/21 09:47:55;;;;;;;22.45;10.77;;;;;;;7.62;99.39;100983.97;5036643;28;20128;-67
2021/11/21 09:50:23;;;;;;;25.00;12.02;;;;;;;7.67;99.33;100987.00;5029079;28;20029;-68
2021/11/21 09:52:51;;;;;;;27.60;11.63;;;;;;;7.76;99.18;100988.75;5040034;28;20103;-67
2021/11/21 09:55:17;;;;;;;23.73;11.25;;;;;;;7.78;98.92;100992.03;5031344;28;20040;-67
2021/11/21 09:57:44;;;;;;;24.17;11.38;;;;;;;7.89;98.73;100979.03;5029357;28;20284;-67
2021/11/21 10:00:16;;;;;;;24.98;10.95;;;;;;;7.88;98.29;100986.88;5034886;28;20049;-67
2021/11/21 10:02:43;;;;;;;40.97;20.33;;;;;;;7.90;98.69;100992.72;5023823;28;20510;-68
2021/11/21 10:05:16;;;;;;;27.60;12.55;;;;;;;8.06;98.61;100984.44;5036667;28;20040;-67
2021/11/21 10:07:45;;;;;;;26.60;11.95;;;;;;;8.07;98.00;100989.47;5034914;28;20455;-67
2021/11/21 10:10:17;;;;;;;27.10;11.90;;;;;;;7.95;97.52;100988.00;5025879;28;20026;-67
2021/11/21 10:12:43;;;;;;;29.80;13.52;;;;;;;7.99;98.09;100992.75;5032232;28;20041;-67
2021/11/21 10:15:12;;;;;;;45.40;23.38;;;;;;;7.96;98.27;100987.84;5028240;28;20076;-67
2021/11/21 10:17:46;;;;;;;34.83;15.30;;;;;;;7.97;98.74;100994.66;5042674;28;20029;-68
2021/11/21 10:20:29;;;;;;;26.65;11.98;;;;;;;7.98;98.74;100995.44;5030698;28;20506;-67
2021/11/21 10:23:04;;;;;;;28.02;13.57;;;;;;;8.04;98.71;100994.91;5025871;28;20172;-68
2021/11/21 10:25:42;;;;;;;26.27;12.65;;;;;;;7.97;98.53;100999.81;5030983;28;20134;-68
2021/11/21 10:28:39;;;;;;;34.47;14.18;;;;;;;8.12;98.09;100994.25;5033203;28;20353;-67
2021/11/21 10:31:16;;;;;;;26.13;12.90;;;;;;;8.15;98.05;100991.38;5032538;28;20034;-68
2021/11/21 10:33:47;;;;;;;29.27;12.90;;;;;;;8.03;97.87;100988.13;5036819;28;20052;-68
2021/11/21 10:36:19;;;;;;;32.33;14.63;;;;;;;8.03;98.24;100989.91;5030694;28;20531;-68
2021/11/21 10:39:03;;;;;;;30.73;12.70;;;;;;;8.05;98.48;100985.41;5039034;28;20048;-67
2021/11/21 10:41:35;;;;;;;29.75;13.23;;;;;;;7.99;98.62;100986.78;5029126;28;20037;-67
2021/11/21 10:44:07;;;;;;;32.20;13.45;;;;;;;8.07;99.29;100983.50;5034322;28;20037;-68
2021/11/21 10:46:38;;;;;;;28.08;12.27;;;;;;;7.98;99.19;100979.97;5032220;28;20055;-68
2021/11/21 10:49:24;;;;;;;31.33;12.63;;;;;;;8.13;98.84;100985.53;5034537;28;20063;-67
2021/11/21 10:52:11;;;;;;;30.52;12.48;;;;;;;8.09;98.76;100979.03;5029254;28;20542;-68
2021/11/21 10:54:47;;;;;;;33.13;13.10;;;;;;;8.11;99.06;100969.38;5028637;28;20649;-67
2021/11/21 10:57:16;;;;;;;40.78;13.32;;;;;;;8.15;99.14;100973.31;5031399;28;20116;-68
2021/11/21 10:59:49;;;;;;;30.70;13.07;;;;;;;8.23;99.31;100978.63;5036800;28;20037;-68
2021/11/21 11:02:31;;;;;;;;;;;;;;;8.15;99.05;100975.91;5036212;28;20103;-67
2021/11/21 11:04:59;;;;;;;30.08;13.15;;;;;;;8.27;99.29;100976.56;5031551;28;20106;-67
2021/11/21 11:07:26;;;;;;;32.65;12.07;;;;;;;8.33;98.92;100978.63;5037086;28;20034;-67
2021/11/21 11:09:54;;;;;;;25.85;11.77;;;;;;;8.38;98.62;100982.44;5023691;28;20029;-67
2021/11/21 11:12:21;;;;;;;31.27;11.82;;;;;;;8.30;98.51;100979.69;5048304;28;20038;-68
2021/11/21 11:14:46;;;;;;;30.63;12.68;;;;;;;8.31;98.71;100983.91;5028589;28;20057;-67
2021/11/21 11:17:12;;;;;;;38.80;12.68;;;;;;;8.37;98.58;100982.56;5034834;28;20091;-68